Latest METARs, TAFs and NOTAMs for LIPZ


---------------------------------------------------------------------------
	(OBSERVATIONS)
LIPZ 221020Z 26005KT 230V300 4000 BR BKN020 08/05 Q1019 NOSIG=
LIPZ 220950Z 25006KT 220V290 4000 BR BKN020 08/04 Q1019 NOSIG=
LIPZ 220920Z 25004KT 4000 BR BKN020 08/04 Q1019 NOSIG=
LIPZ 220850Z 26004KT 3000 BR BKN015 07/04 Q1019 NOSIG=
LIPZ 220820Z 26003KT 230V290 2500 BR BKN015 07/05 Q1019 NOSIG=
LIPZ 220750Z 28004KT 240V350 2500 BR BKN015 07/05 Q1019 NOSIG=
---------------------------------------------------------------------------
	(FC)
Sorry, FC For LIPZ Not Found
---------------------------------------------------------------------------
	(TERMINAL AREA FORECAST)
LIPZ 220500Z 2206/2312 VRB06KT 1500 BR OVC005
    BECMG 2210/2212 3000 SCT012
    BECMG 2221/2223 0600 FG OVC001
    BECMG 2308/2310 2000 BR=
---------------------------------------------------------------------------
	(NOTAMS)


LIPZ A0139/17 TAXIWAY 'C' CLOSED DUE TO TECR. REF AIP AD 2 LIPZ
    2-1. 10 JAN 08:46 2017 UNTIL 01 MAR 23:59 2017. CREATED:
    10 JAN 08:46 2017

LIPZ A0471/17 AIRCRAFT DE-ICING. FREQUENCY 131.465MHZ USED FOR
    COMMUNICATION DURING DE-ICING BTN AIRCRAFT PILOT IN COMMAND
    AND AD OPERATOR (SAVE SPA) CHANGE TO 131.880MHZ DUE TO TECR
    REF AIP AD 2 LIPZ 1-14. 24 JAN 09:49 2017 UNTIL 15 MAR 17:00
    2017. CREATED: 24 JAN 09:49 2017

LIPZ A0570/17 REF AOC TYPE B NR PZ 3/4 NEW OBSTACLE ERECTED POLE
    PENETRATING TRANSITIONAL SURFACE PSN COORD (WGS84): - 452943.1
    N 0122031.2 E MAX ELEV AGL 5.9M/19.4FT MAX ELEV AMSL 7.5M/24.6FT
    ICAO SIGNAL PROVIDED - 453002.1 N 0122055.5 E MAX ELEV AGL
    6.0M/19.7FT MAX ELEV AMSL 7.5M/24.6FT ICAO SIGNAL PROVIDED
    - 453021.5 N 0122120.5 E MAX ELEV AGL 5.9M/19.4FT MAX ELEV
    AMSL 7.4M/24.3FT ICAO SIGNAL PROVIDED - 453040.7 N 0122145.2
    E MAX ELEV AGL 5.9M/19.4FT MAX ELEV AMSL PART 1 OF 3. 30
    JAN 09:21 2017 UNTIL PERM. CREATED: 30 JAN 09:26 2017

LIPZ A0570/17 7.4M/24.3FT ICAO SIGNAL PROVIDED - 452947.1 N 0122036.2
    E MAX ELEV AGL 4.0M/13.1FT MAX ELEV AMSL 5.6M/18.4FT ICAO
    SIGNAL PROVIDED - 452951.0 N 0122041.1 E MAX ELEV AGL 4.0M/13.1FT
    MAX ELEV AMSL 5.6M/18.4FT ICAO SIGNAL PROVIDED - 452954.8
    N 0122046.1 E MAX ELEV AGL 4.0M/13.1FT MAX ELEV AMSL 5.6M/18.4FT
    ICAO SIGNAL PROVIDED - 452958.6 N 0122051.1 E MAX ELEV AGL
    4.0M/13.1FT MAX ELEV AMSL 5.6M/18.4FT ICAO SIGNAL PROVIDED
    - 453006.4 N 0122101.1 E MAX ELEV AGL 4.0M/13.1FT MAX ELEV
    AMSL 5.6M/18.4FT ICAO SIGNAL PROVIDED - 453010.2 N 0122106.0
    E MAX ELEV AGL 4.0M/13.1FT MAX ELEV AMSL 5.6M/18.4FT ICAO
    SIGNAL PROVIDED - 453014.1 N 0122110.9 E MAX ELEV AGL 4.0M/13.1FT
    MAX ELEV AMSL 5.6M/18.4FT ICAO SIGNAL PROVIDED - 453017.9
    N 0122115.8 E MAX ELEV AGL 4.0M/13.1FT MAX ELEV AMSL 5.6M/18.4FT
    ICAO SIGNAL PROVIDED PART 2 OF 3. 30 JAN 09:21 2017 UNTIL
    PERM. CREATED: 30 JAN 09:26 2017

LIPZ A0570/17 - 453025.6 N 0122125.8 E MAX ELEV AGL 4.0M/13.1FT
    MAX ELEV AMSL 5.6M/18.4FT ICAO SIGNAL PROVIDED - 453029.5
    N 0122130.7 E MAX ELEV AGL 4.0M/13.1FT MAX ELEV AMSL 5.6M/18.4FT
    ICAO SIGNAL PROVIDED - 453033.3 N 0122135.6 E MAX ELEV AGL
    4.0M/13.1FT MAX ELEV AMSL 5.6M/18.4FT ICAO SIGNAL PROVIDED
    - 453037.1 N 0122140.5 E MAX ELEV AGL 4.0M/13.1FT MAX ELEV
    AMSL 5.6M/18.4FT ICAO SIGNAL PROVIDED - 453044.4 N 0122149.9
    E MAX ELEV AGL 4.0M/13.1FT MAX ELEV AMSL 5.6M/18.4FT ICAO
    SIGNAL PROVIDED - 453047.8 N 0122154.3 E MAX ELEV AGL 4.0M/13.1FT
    MAX ELEV AMSL 5.6M/18.4FT ICAO SIGNAL PROVIDED - 453051.3
    N 0122158.8 E MAX ELEV AGL 4.0M/13.1FT MAX ELEV AMSL 5.6M/18.4FT
    ICAO SIGNAL PROVIDED - 453054.8 N 0122203.1 E MAX ELEV AGL
    4.0M/13.1FT MAX ELEV AMSL 5.6M/18.4FT ICAO SIGNAL PROVIDED
    - 453056.2 N 0122205.0 E MAX ELEV AGL 3.5M/11.5FT MAX ELEV
    AMSL 5.1M/16.7FT ICAO SIGNAL PROVIDED) PART 3 OF 3. 30 JAN
    09:21 2017 UNTIL PERM. CREATED: 30 JAN 09:26 2017

LIPZ A0588/17 AERODROME CLOSED TO ALL TRAFFIC DUE TO WIP REF
    AIP AD 2 LIPZ 1-1. TUE AND WED 2300-0350, 28 FEB 23:00 2017
    UNTIL 23 MAR 03:50 2017. CREATED: 30 JAN 15:37 2017

LIPZ A0669/17 STANDARD INSTRUMENT ARRIVAL. MNM ENR ALT ALONG
    FLW LINK ROUTE/STAR SEGMENTS RAISED TO 6000FT DUE TO MIL
    HEL ACT ANNOUNCED BY NOTAM W0229/17: - LOBSI 1X BTN LOBSI-VEPAD
    - LOBSI 1U BTN LOBSI-CHI VOR/DME - LOBSI 1Y BTN LOBSI-AGAVI
    - LOBSI 1Z - SOVUB 2X BTN SOVUB-PZ507 - SOVUB 1Y BTN SOVUB-INDOD
    - SOVUB 1Z - ROVIG 1W BTN ROVIG-AGAVI - ROVIG 4A BTN ROVIG-PZ505
    - ROVIG 1Y BTN ROVIG-PZ514 - ROVIG 1X BTN ROVIG-VEPAD - ROVIG
    1Z REF AIP AD 2 LIPZ 4. MON-THU 0900-2100 AND FRI 0800-1500,
    06 FEB 09:00 2017 UNTIL 28 FEB 21:00 2017. CREATED: 01 FEB
    15:21 2017

LIPZ A0864/17 AIRCRAFT STANDS 443, 444, 445, 446, 547, 548, 549,
    550, 551 AND 552 CLOSED DUE TO WIP. REF AIP AD 2 LIPZ 2-11.
    09 FEB 12:37 2017 UNTIL 24 FEB 17:00 2017. CREATED: 09 FEB
    12:37 2017

LIPZ A0965/17 AERODROME CONTROL SERVICE. GROUND MOVEMENT CONTROL
    PROVIDED WITHOUT USE OF SMR REF AIP AD 2 LIPZ 1-11. 23 FEB
    08:00 2017 UNTIL 23 FEB 11:00 2017. CREATED: 15 FEB 08:38
    2017

LIPZ A1021/17 TRIGGER NOTAM-PERM AIP AIRAC AMDT 2/17 EFFECTIVE
    DATE 30 MAR 2017 - REVIEW OF SID AND STAR - REVIEW OF AERODROME
    CARTOGRAPHY DUE TO NEW INTERSECTION TAKE-OFF 'S' - INFORMATION
    CONCERNING RUNWAY PREFERENTIAL USE AND SPECIAL RULES FOR
    TAXIWAY USE UPDATED. AIRAC IS POSTED AND AVBL ON WEBSITE
    WWW.ENAV.IT. 30 MAR 00:00 2017 UNTIL 12 APR 23:59 2017. CREATED:
    16 FEB 15:15 2017

LIPZ A1067/17 HANDLING SER NOT ASSURED BY 'WFS GROUND ITALY',
    'G.H. VENEZIA' AND 'AVIAPARTNER' DUE TO PART OF PERSONNEL
    STRIKE REF AIP AD 2 LIPZ 1-1. 23 FEB 13:00 2017 UNTIL 23
    FEB 17:00 2017. CREATED: 17 FEB 18:32 2017

LIPZ A1094/17 AERODROME CLOSED TO ALL TRAFFIC DUE TO WIP REF
    AIP AD2 LIPZ 1-1. 27 FEB 23:00 2017 UNTIL 28 FEB 03:50 2017.
    CREATED: 21 FEB 13:54 2017

LIPZ A1096/17 VENEZIA LOCATOR 'VEN' FREQ 379.00KHZ UNSERVICEABLE
    REF AIP AD 2 LIPZ 1-8. 08 MAR 08:30 2017 UNTIL 08 MAR 10:00
    2017. CREATED: 21 FEB 14:42 2017

LIPZ A1097/17 OUTER MARKER (ILS) RWY04R UNSERVICEABLE. REF AIP
    AD 2 LIPZ 1-8. 08 MAR 10:00 2017 UNTIL 08 MAR 11:00 2017.
    CREATED: 21 FEB 14:44 2017

LIPZ A1099/17 TESSERA VOR/DME 'TES' 115.30MHZ CH 100X UNSERVICEABLE.
    REF AIP AD 2 LIPZ 1-8. 07 MAR 08:00 2017 UNTIL 07 MAR 11:00
    2017. CREATED: 21 FEB 14:48 2017

LIPZ A1100/17 IN THE EVENT OF RADIO FAILURE, THE REP DESIGNATED
    TO DESCEND FOR LANDING AT VENEZIA/TESSERA AD IS 'LATUS' REF
    AIP AD 2 LIPZ 1-13. 08 MAR 08:30 2017 UNTIL 08 MAR 10:00
    2017. CREATED: 21 FEB 14:48 2017

LIPZ A1107/17 INSTRUMENT LANDING SYSTEM (ILS) RWY04R UNSERVICEABLE
    REF AIP AD 2 LIPZ 1-8. FEB 27 2300-0350, 28 AND MAR 01 2300-0330,
    27 FEB 23:00 2017 UNTIL 02 MAR 03:30 2017. CREATED: 21 FEB
    17:05 2017

LIPZ A4402/15 REF AIP AD 2 LIPZ 6-21 STANDARD INSTRUMENT DEPARTURE
    PROCEDURE RWY 22L/R DESCRIPTION SID LUMAV 5V (ATC DISCRETION)
    ON TABLE DESCRIPTION ON ROW REFERRED TO WAYPOINT LUMAV MODIFY
    COLUMN 'BEARING/RANGE TO NAVAID' TO READ RDL 215/D53 INSTEAD
    OF RDL 215/D32 OTHER DATA UNCHANGED. 02 JUL 12:40 2015 UNTIL
    PERM. CREATED: 02 JUL 12:40 2015

LIPZ A8778/15 REF AIP AD 2 LIPZ 6-9 AND 6-14 (AIRAC 12/15 - EFFECTIVE
    DATE 7 JAN 2016) STANDARD INSTRUMENT DEPARTURE RWY 04L/R
    (TES VOR/DME) MODIFY SID CODE TO READ ROKIB 5W INSTEAD OF
    ROKIB 5V OTHER DATA UNCHANGED. 07 JAN 00:00 2016 UNTIL PERM.
    CREATED: 14 DEC 10:17 2015

LIPZ F0015/07 [DEFENSE ENERGY SUPPORT CENTER ADVISORY] FUEL AVAILABILITY
    NOT AVAILABLE PHONE AHEAD FOR FUEL AVAILABILITY. 12 JUL 10:20
    2020 UNTIL 01 AUG 25:20 2020

---------------------------------------------------------------------------